sensor_id;sensor_type;location;lat;lon;timestamp;temperature;humidity
12634;DHT22;6382;48.614;8.880;2023-08-20T00:01:47;20.00;99.90
12634;DHT22;6382;48.614;8.880;2023-08-20T00:04:16;19.90;99.90
12634;DHT22;6382;48.614;8.880;2023-08-20T00:06:44;19.80;99.90
12634;DHT22;6382;48.614;8.880;2023-08-20T00:09:12;19.80;99.90
12634;DHT22;6382;48.614;8.880;2023-08-20T00:11:39;19.80;99.90
12634;DHT22;6382;48.614;8.880;2023-08-20T00:14:06;21.30;99.90
12634;DHT22;6382;48.614;8.880;2023-08-20T00:16:33;20.70;99.90
12634;DHT22;6382;48.614;8.880;2023-08-20T00:19:00;19.90;99.90
12634;DHT22;6382;48.614;8.880;2023-08-20T00:21:26;19.90;99.90
12634;DHT22;6382;48.614;8.880;2023-08-20T00:23:54;19.90;99.90
12634;DHT22;6382;48.614;8.880;2023-08-20T00:26:21;20.00;99.90
12634;DHT22;6382;48.614;8.880;2023-08-20T00:28:48;20.00;99.90
12634;DHT22;6382;48.614;8.880;2023-08-20T00:31:15;20.10;99.90
12634;DHT22;6382;48.614;8.880;2023-08-20T00:33:42;20.30;99.90
12634;DHT22;6382;48.614;8.880;2023-08-20T00:36:30;21.10;99.90
12634;DHT22;6382;48.614;8.880;2023-08-20T00:38:57;20.70;99.90
12634;DHT22;6382;48.614;8.880;2023-08-20T00:41:23;20.00;99.90
12634;DHT22;6382;48.614;8.880;2023-08-20T00:43:50;20.40;99.90
12634;DHT22;6382;48.614;8.880;2023-08-20T00:46:17;20.30;99.90
12634;DHT22;6382;48.614;8.880;2023-08-20T00:48:43;20.00;99.90
12634;DHT22;6382;48.614;8.880;2023-08-20T00:51:10;20.30;99.90
12634;DHT22;6382;48.614;8.880;2023-08-20T00:53:37;21.30;99.90
12634;DHT22;6382;48.614;8.880;2023-08-20T00:56:06;19.90;99.90
12634;DHT22;6382;48.614;8.880;2023-08-20T00:58:33;21.20;99.90
12634;DHT22;6382;48.614;8.880;2023-08-20T01:01:00;21.30;99.90
12634;DHT22;6382;48.614;8.880;2023-08-20T01:03:27;19.80;99.90
12634;DHT22;6382;48.614;8.880;2023-08-20T01:05:58;19.80;99.90
12634;DHT22;6382;48.614;8.880;2023-08-20T01:08:37;20.80;99.90
12634;DHT22;6382;48.614;8.880;2023-08-20T01:11:19;19.70;99.90
12634;DHT22;6382;48.614;8.880;2023-08-20T01:13:48;19.70;99.90
12634;DHT22;6382;48.614;8.880;2023-08-20T01:16:15;19.70;99.90
12634;DHT22;6382;48.614;8.880;2023-08-20T01:18:42;19.70;99.90
12634;DHT22;6382;48.614;8.880;2023-08-20T01:21:13;19.60;99.90
12634;DHT22;6382;48.614;8.880;2023-08-20T01:26:33;19.50;99.90
12634;DHT22;6382;48.614;8.880;2023-08-20T01:29:02;19.50;99.90
12634;DHT22;6382;48.614;8.880;2023-08-20T01:31:29;19.50;99.90
12634;DHT22;6382;48.614;8.880;2023-08-20T01:33:56;20.20;99.90
12634;DHT22;6382;48.614;8.880;2023-08-20T01:36:24;20.10;99.90
12634;DHT22;6382;48.614;8.880;2023-08-20T01:38:51;19.60;99.90
12634;DHT22;6382;48.614;8.880;2023-08-20T01:41:17;19.60;99.90
12634;DHT22;6382;48.614;8.880;2023-08-20T01:43:44;19.60;99.90
12634;DHT22;6382;48.614;8.880;2023-08-20T01:46:11;19.60;99.90
12634;DHT22;6382;48.614;8.880;2023-08-20T01:48:39;19.50;99.90
12634;DHT22;6382;48.614;8.880;2023-08-20T01:51:06;19.60;99.90
12634;DHT22;6382;48.614;8.880;2023-08-20T01:53:33;19.40;99.90
12634;DHT22;6382;48.614;8.880;2023-08-20T01:55:59;20.10;99.90
12634;DHT22;6382;48.614;8.880;2023-08-20T01:58:26;20.20;99.90
12634;DHT22;6382;48.614;8.880;2023-08-20T02:00:53;19.90;99.90
12634;DHT22;6382;48.614;8.880;2023-08-20T02:03:20;20.10;99.90
12634;DHT22;6382;48.614;8.880;2023-08-20T02:05:47;19.30;99.90
12634;DHT22;6382;48.614;8.880;2023-08-20T02:08:13;19.50;99.90
12634;DHT22;6382;48.614;8.880;2023-08-20T02:10:40;19.30;99.90
12634;DHT22;6382;48.614;8.880;2023-08-20T02:13:07;20.10;99.90
12634;DHT22;6382;48.614;8.880;2023-08-20T02:15:33;19.30;99.90
12634;DHT22;6382;48.614;8.880;2023-08-20T02:18:00;19.40;99.90
12634;DHT22;6382;48.614;8.880;2023-08-20T02:20:28;19.20;99.90
12634;DHT22;6382;48.614;8.880;2023-08-20T02:22:55;19.70;99.90
12634;DHT22;6382;48.614;8.880;2023-08-20T02:25:22;19.20;99.90
12634;DHT22;6382;48.614;8.880;2023-08-20T02:27:49;19.90;99.90
12634;DHT22;6382;48.614;8.880;2023-08-20T02:30:16;19.80;99.90
12634;DHT22;6382;48.614;8.880;2023-08-20T02:32:42;19.00;99.90
12634;DHT22;6382;48.614;8.880;2023-08-20T02:35:09;19.90;99.90
12634;DHT22;6382;48.614;8.880;2023-08-20T02:37:36;18.90;99.90
12634;DHT22;6382;48.614;8.880;2023-08-20T02:40:04;20.00;99.90
12634;DHT22;6382;48.614;8.880;2023-08-20T02:42:31;18.90;99.90
12634;DHT22;6382;48.614;8.880;2023-08-20T02:44:58;20.60;99.90
12634;DHT22;6382;48.614;8.880;2023-08-20T02:47:24;19.00;99.90
12634;DHT22;6382;48.614;8.880;2023-08-20T02:49:51;19.00;99.90
12634;DHT22;6382;48.614;8.880;2023-08-20T02:52:18;19.20;99.90
12634;DHT22;6382;48.614;8.880;2023-08-20T02:54:44;18.90;99.90
12634;DHT22;6382;48.614;8.880;2023-08-20T02:57:11;19.60;99.90
12634;DHT22;6382;48.614;8.880;2023-08-20T02:59:38;18.90;99.90
12634;DHT22;6382;48.614;8.880;2023-08-20T03:02:04;19.10;99.90
12634;DHT22;6382;48.614;8.880;2023-08-20T03:04:31;19.30;99.90
12634;DHT22;6382;48.614;8.880;2023-08-20T03:06:58;19.00;99.90
12634;DHT22;6382;48.614;8.880;2023-08-20T03:09:25;19.10;99.90
12634;DHT22;6382;48.614;8.880;2023-08-20T03:11:51;19.10;99.90
12634;DHT22;6382;48.614;8.880;2023-08-20T03:14:18;19.30;99.90
12634;DHT22;6382;48.614;8.880;2023-08-20T03:16:44;19.90;99.90
12634;DHT22;6382;48.614;8.880;2023-08-20T03:19:13;19.40;99.90
12634;DHT22;6382;48.614;8.880;2023-08-20T03:21:40;19.90;99.90
12634;DHT22;6382;48.614;8.880;2023-08-20T03:24:07;19.50;99.90
12634;DHT22;6382;48.614;8.880;2023-08-20T03:26:33;19.60;99.90
12634;DHT22;6382;48.614;8.880;2023-08-20T03:29:00;19.70;99.90
12634;DHT22;6382;48.614;8.880;2023-08-20T03:31:27;19.80;99.90
12634;DHT22;6382;48.614;8.880;2023-08-20T03:33:54;19.80;99.90
12634;DHT22;6382;48.614;8.880;2023-08-20T03:36:20;19.90;99.90
12634;DHT22;6382;48.614;8.880;2023-08-20T03:38:47;19.70;99.90
12634;DHT22;6382;48.614;8.880;2023-08-20T03:41:14;19.50;99.90
12634;DHT22;6382;48.614;8.880;2023-08-20T03:43:40;20.40;99.90
12634;DHT22;6382;48.614;8.880;2023-08-20T03:46:07;19.20;99.90
12634;DHT22;6382;48.614;8.880;2023-08-20T03:48:34;19.60;99.90
12634;DHT22;6382;48.614;8.880;2023-08-20T03:51:01;19.30;99.90
12634;DHT22;6382;48.614;8.880;2023-08-20T03:53:27;19.80;99.90
12634;DHT22;6382;48.614;8.880;2023-08-20T03:55:54;19.90;99.90
12634;DHT22;6382;48.614;8.880;2023-08-20T03:58:21;19.40;99.90
12634;DHT22;6382;48.614;8.880;2023-08-20T04:00:47;19.30;99.90
12634;DHT22;6382;48.614;8.880;2023-08-20T04:03:14;19.00;99.90
12634;DHT22;6382;48.614;8.880;2023-08-20T04:05:41;18.90;99.90
12634;DHT22;6382;48.614;8.880;2023-08-20T04:08:07;20.00;99.90
12634;DHT22;6382;48.614;8.880;2023-08-20T04:10:34;19.00;99.90
12634;DHT22;6382;48.614;8.880;2023-08-20T04:13:01;19.30;99.90
12634;DHT22;6382;48.614;8.880;2023-08-20T04:15:28;19.60;99.90
12634;DHT22;6382;48.614;8.880;2023-08-20T04:17:55;19.50;99.90
12634;DHT22;6382;48.614;8.880;2023-08-20T04:20:22;20.40;99.90
12634;DHT22;6382;48.614;8.880;2023-08-20T04:22:49;20.30;99.90
12634;DHT22;6382;48.614;8.880;2023-08-20T04:25:16;19.80;99.90
12634;DHT22;6382;48.614;8.880;2023-08-20T04:27:43;19.10;99.90
12634;DHT22;6382;48.614;8.880;2023-08-20T04:30:10;20.20;99.90
12634;DHT22;6382;48.614;8.880;2023-08-20T04:32:37;18.90;99.90
12634;DHT22;6382;48.614;8.880;2023-08-20T04:35:04;18.90;99.90
12634;DHT22;6382;48.614;8.880;2023-08-20T04:37:31;18.80;99.90
12634;DHT22;6382;48.614;8.880;2023-08-20T04:39:57;19.50;99.90
12634;DHT22;6382;48.614;8.880;2023-08-20T04:42:24;20.30;99.90
12634;DHT22;6382;48.614;8.880;2023-08-20T04:44:51;20.10;99.90
12634;DHT22;6382;48.614;8.880;2023-08-20T04:47:18;19.30;99.90
12634;DHT22;6382;48.614;8.880;2023-08-20T04:49:45;19.10;99.90
12634;DHT22;6382;48.614;8.880;2023-08-20T04:52:11;19.00;99.90
12634;DHT22;6382;48.614;8.880;2023-08-20T04:54:38;19.10;99.90
12634;DHT22;6382;48.614;8.880;2023-08-20T04:57:05;20.00;99.90
12634;DHT22;6382;48.614;8.880;2023-08-20T04:59:31;20.60;99.90
12634;DHT22;6382;48.614;8.880;2023-08-20T05:01:58;19.60;99.90
12634;DHT22;6382;48.614;8.880;2023-08-20T05:04:25;19.90;99.90
12634;DHT22;6382;48.614;8.880;2023-08-20T05:06:51;19.30;99.90
12634;DHT22;6382;48.614;8.880;2023-08-20T05:09:18;19.40;99.90
12634;DHT22;6382;48.614;8.880;2023-08-20T05:11:45;19.30;99.90
12634;DHT22;6382;48.614;8.880;2023-08-20T05:14:12;19.20;99.90
12634;DHT22;6382;48.614;8.880;2023-08-20T05:16:38;20.10;99.90
12634;DHT22;6382;48.614;8.880;2023-08-20T05:19:05;19.70;99.90
12634;DHT22;6382;48.614;8.880;2023-08-20T05:21:32;19.10;99.90
12634;DHT22;6382;48.614;8.880;2023-08-20T05:23:59;19.30;99.90
12634;DHT22;6382;48.614;8.880;2023-08-20T05:26:26;20.50;99.90
12634;DHT22;6382;48.614;8.880;2023-08-20T05:28:52;19.60;99.90
12634;DHT22;6382;48.614;8.880;2023-08-20T05:31:19;22.20;99.90
12634;DHT22;6382;48.614;8.880;2023-08-20T05:33:46;19.90;99.90
12634;DHT22;6382;48.614;8.880;2023-08-20T05:36:13;20.00;99.90
12634;DHT22;6382;48.614;8.880;2023-08-20T05:38:40;20.20;99.90
12634;DHT22;6382;48.614;8.880;2023-08-20T05:41:12;20.70;99.90
12634;DHT22;6382;48.614;8.880;2023-08-20T05:43:38;20.30;99.90
12634;DHT22;6382;48.614;8.880;2023-08-20T05:46:05;20.90;99.90
12634;DHT22;6382;48.614;8.880;2023-08-20T05:48:32;21.20;99.90
12634;DHT22;6382;48.614;8.880;2023-08-20T05:50:59;20.70;99.90
12634;DHT22;6382;48.614;8.880;2023-08-20T05:53:25;22.10;99.90
12634;DHT22;6382;48.614;8.880;2023-08-20T05:55:52;20.80;99.90
12634;DHT22;6382;48.614;8.880;2023-08-20T05:58:19;21.00;99.90
12634;DHT22;6382;48.614;8.880;2023-08-20T06:00:45;21.30;99.90
12634;DHT22;6382;48.614;8.880;2023-08-20T06:03:13;21.00;99.90
12634;DHT22;6382;48.614;8.880;2023-08-20T06:05:40;21.70;99.90
12634;DHT22;6382;48.614;8.880;2023-08-20T06:08:06;22.60;99.90
12634;DHT22;6382;48.614;8.880;2023-08-20T06:10:33;21.40;99.90
12634;DHT22;6382;48.614;8.880;2023-08-20T06:13:00;22.90;99.90
12634;DHT22;6382;48.614;8.880;2023-08-20T06:15:26;21.70;99.90
12634;DHT22;6382;48.614;8.880;2023-08-20T06:17:53;21.80;99.90
12634;DHT22;6382;48.614;8.880;2023-08-20T06:20:20;21.80;99.90
12634;DHT22;6382;48.614;8.880;2023-08-20T06:22:46;21.90;99.90
12634;DHT22;6382;48.614;8.880;2023-08-20T06:25:13;22.00;99.90
12634;DHT22;6382;48.614;8.880;2023-08-20T06:27:40;22.10;99.90
12634;DHT22;6382;48.614;8.880;2023-08-20T06:30:08;22.30;99.90
12634;DHT22;6382;48.614;8.880;2023-08-20T06:32:35;22.30;99.90
12634;DHT22;6382;48.614;8.880;2023-08-20T06:35:02;22.30;99.90
12634;DHT22;6382;48.614;8.880;2023-08-20T06:37:29;22.40;99.90
12634;DHT22;6382;48.614;8.880;2023-08-20T06:39:56;22.40;99.90
12634;DHT22;6382;48.614;8.880;2023-08-20T06:42:23;22.50;99.90
12634;DHT22;6382;48.614;8.880;2023-08-20T06:44:49;23.30;99.90
12634;DHT22;6382;48.614;8.880;2023-08-20T06:47:16;22.90;99.90
12634;DHT22;6382;48.614;8.880;2023-08-20T06:49:43;22.90;99.90
12634;DHT22;6382;48.614;8.880;2023-08-20T06:52:09;23.20;99.90
12634;DHT22;6382;48.614;8.880;2023-08-20T06:54:36;23.20;99.90
12634;DHT22;6382;48.614;8.880;2023-08-20T06:57:03;23.30;99.90
12634;DHT22;6382;48.614;8.880;2023-08-20T06:59:30;23.50;99.90
12634;DHT22;6382;48.614;8.880;2023-08-20T07:01:56;23.70;99.90
12634;DHT22;6382;48.614;8.880;2023-08-20T07:04:23;23.80;99.90
12634;DHT22;6382;48.614;8.880;2023-08-20T07:06:50;23.70;99.90
12634;DHT22;6382;48.614;8.880;2023-08-20T07:09:17;25.10;99.90
12634;DHT22;6382;48.614;8.880;2023-08-20T07:11:44;23.70;99.90
12634;DHT22;6382;48.614;8.880;2023-08-20T07:14:14;23.70;99.90
12634;DHT22;6382;48.614;8.880;2023-08-20T07:16:41;23.80;99.90
12634;DHT22;6382;48.614;8.880;2023-08-20T07:19:08;23.90;99.90
12634;DHT22;6382;48.614;8.880;2023-08-20T07:21:35;24.30;99.90
12634;DHT22;6382;48.614;8.880;2023-08-20T07:24:01;24.00;99.90
12634;DHT22;6382;48.614;8.880;2023-08-20T07:26:29;24.20;99.90
12634;DHT22;6382;48.614;8.880;2023-08-20T07:28:56;24.40;99.90
12634;DHT22;6382;48.614;8.880;2023-08-20T07:31:27;24.20;99.90
12634;DHT22;6382;48.614;8.880;2023-08-20T07:33:54;24.80;99.90
12634;DHT22;6382;48.614;8.880;2023-08-20T07:36:22;24.10;99.90
12634;DHT22;6382;48.614;8.880;2023-08-20T07:38:49;24.10;99.90
12634;DHT22;6382;48.614;8.880;2023-08-20T07:41:16;24.20;99.90
12634;DHT22;6382;48.614;8.880;2023-08-20T07:43:43;24.40;99.90
12634;DHT22;6382;48.614;8.880;2023-08-20T07:46:10;24.50;99.90
12634;DHT22;6382;48.614;8.880;2023-08-20T07:48:37;24.40;99.90
12634;DHT22;6382;48.614;8.880;2023-08-20T07:51:04;24.50;99.90
12634;DHT22;6382;48.614;8.880;2023-08-20T07:53:32;24.60;99.90
12634;DHT22;6382;48.614;8.880;2023-08-20T07:55:59;24.70;99.90
12634;DHT22;6382;48.614;8.880;2023-08-20T07:58:27;24.90;99.90
12634;DHT22;6382;48.614;8.880;2023-08-20T08:00:56;25.00;99.90
12634;DHT22;6382;48.614;8.880;2023-08-20T08:03:28;25.00;99.90
12634;DHT22;6382;48.614;8.880;2023-08-20T08:05:55;25.00;99.90
12634;DHT22;6382;48.614;8.880;2023-08-20T08:08:22;25.00;99.90
12634;DHT22;6382;48.614;8.880;2023-08-20T08:10:49;25.10;99.90
12634;DHT22;6382;48.614;8.880;2023-08-20T08:13:18;25.20;99.90
12634;DHT22;6382;48.614;8.880;2023-08-20T08:15:45;25.10;99.90
12634;DHT22;6382;48.614;8.880;2023-08-20T08:18:15;25.10;99.90
12634;DHT22;6382;48.614;8.880;2023-08-20T08:20:42;25.20;99.90
12634;DHT22;6382;48.614;8.880;2023-08-20T08:23:09;25.30;99.90
12634;DHT22;6382;48.614;8.880;2023-08-20T08:25:38;25.40;99.90
12634;DHT22;6382;48.614;8.880;2023-08-20T08:28:06;25.40;99.90
12634;DHT22;6382;48.614;8.880;2023-08-20T08:30:33;25.50;99.90
12634;DHT22;6382;48.614;8.880;2023-08-20T08:33:00;25.60;99.90
12634;DHT22;6382;48.614;8.880;2023-08-20T08:35:26;25.70;99.90
12634;DHT22;6382;48.614;8.880;2023-08-20T08:37:53;25.70;99.90
12634;DHT22;6382;48.614;8.880;2023-08-20T08:40:21;25.80;99.90
12634;DHT22;6382;48.614;8.880;2023-08-20T08:42:48;25.90;99.90
12634;DHT22;6382;48.614;8.880;2023-08-20T08:45:19;26.00;99.90
12634;DHT22;6382;48.614;8.880;2023-08-20T08:47:49;26.00;99.90
12634;DHT22;6382;48.614;8.880;2023-08-20T08:50:16;25.90;99.90
12634;DHT22;6382;48.614;8.880;2023-08-20T08:52:43;26.00;99.90
12634;DHT22;6382;48.614;8.880;2023-08-20T08:55:11;26.10;99.90
12634;DHT22;6382;48.614;8.880;2023-08-20T08:57:39;26.20;99.90
12634;DHT22;6382;48.614;8.880;2023-08-20T09:00:06;26.20;99.90
12634;DHT22;6382;48.614;8.880;2023-08-20T09:02:34;26.30;99.90
12634;DHT22;6382;48.614;8.880;2023-08-20T09:05:05;26.40;99.90
12634;DHT22;6382;48.614;8.880;2023-08-20T09:07:31;26.50;99.90
12634;DHT22;6382;48.614;8.880;2023-08-20T09:09:59;26.50;99.90
12634;DHT22;6382;48.614;8.880;2023-08-20T09:12:27;26.60;99.90
12634;DHT22;6382;48.614;8.880;2023-08-20T09:14:54;26.70;99.90
12634;DHT22;6382;48.614;8.880;2023-08-20T09:17:28;26.80;99.90
12634;DHT22;6382;48.614;8.880;2023-08-20T09:19:55;27.00;99.90
12634;DHT22;6382;48.614;8.880;2023-08-20T09:22:26;27.00;99.90
12634;DHT22;6382;48.614;8.880;2023-08-20T09:24:53;27.10;99.90
12634;DHT22;6382;48.614;8.880;2023-08-20T09:27:21;27.20;99.90
12634;DHT22;6382;48.614;8.880;2023-08-20T09:29:49;27.20;99.90
12634;DHT22;6382;48.614;8.880;2023-08-20T09:32:23;27.30;99.90
12634;DHT22;6382;48.614;8.880;2023-08-20T09:34:54;27.30;99.90
12634;DHT22;6382;48.614;8.880;2023-08-20T09:37:22;27.40;99.90
12634;DHT22;6382;48.614;8.880;2023-08-20T09:39:49;27.50;99.90
12634;DHT22;6382;48.614;8.880;2023-08-20T09:42:16;27.60;99.90
12634;DHT22;6382;48.614;8.880;2023-08-20T09:44:43;27.70;99.90
12634;DHT22;6382;48.614;8.880;2023-08-20T09:47:11;27.80;99.90
12634;DHT22;6382;48.614;8.880;2023-08-20T09:49:41;27.80;99.90
12634;DHT22;6382;48.614;8.880;2023-08-20T09:52:09;27.80;99.90
12634;DHT22;6382;48.614;8.880;2023-08-20T09:54:43;27.80;99.90
12634;DHT22;6382;48.614;8.880;2023-08-20T09:57:15;27.90;99.90
12634;DHT22;6382;48.614;8.880;2023-08-20T09:59:48;27.90;99.90
12634;DHT22;6382;48.614;8.880;2023-08-20T10:02:16;28.00;99.90
12634;DHT22;6382;48.614;8.880;2023-08-20T10:04:43;28.20;99.90
12634;DHT22;6382;48.614;8.880;2023-08-20T10:07:11;28.20;99.90
12634;DHT22;6382;48.614;8.880;2023-08-20T10:09:38;28.30;99.90
12634;DHT22;6382;48.614;8.880;2023-08-20T10:12:08;28.30;99.90
12634;DHT22;6382;48.614;8.880;2023-08-20T10:14:34;28.30;99.90
12634;DHT22;6382;48.614;8.880;2023-08-20T10:17:06;28.40;99.90
12634;DHT22;6382;48.614;8.880;2023-08-20T10:19:32;28.40;99.90
12634;DHT22;6382;48.614;8.880;2023-08-20T10:21:59;28.40;99.90
12634;DHT22;6382;48.614;8.880;2023-08-20T10:24:39;28.50;99.90
12634;DHT22;6382;48.614;8.880;2023-08-20T10:27:09;28.60;99.90
12634;DHT22;6382;48.614;8.880;2023-08-20T10:29:40;28.60;99.90
12634;DHT22;6382;48.614;8.880;2023-08-20T10:32:10;28.60;99.90
12634;DHT22;6382;48.614;8.880;2023-08-20T10:34:38;28.60;99.90
12634;DHT22;6382;48.614;8.880;2023-08-20T10:37:09;28.70;99.90
12634;DHT22;6382;48.614;8.880;2023-08-20T10:39:35;28.80;99.90
12634;DHT22;6382;48.614;8.880;2023-08-20T10:50:23;29.20;99.90
12634;DHT22;6382;48.614;8.880;2023-08-20T10:52:59;29.30;99.90
12634;DHT22;6382;48.614;8.880;2023-08-20T10:55:25;29.40;99.90
12634;DHT22;6382;48.614;8.880;2023-08-20T10:57:57;29.50;99.90
12634;DHT22;6382;48.614;8.880;2023-08-20T11:00:26;29.40;99.90
12634;DHT22;6382;48.614;8.880;2023-08-20T11:02:54;29.10;99.90
12634;DHT22;6382;48.614;8.880;2023-08-20T11:05:22;29.10;99.90
12634;DHT22;6382;48.614;8.880;2023-08-20T11:07:49;29.30;99.90
12634;DHT22;6382;48.614;8.880;2023-08-20T11:10:16;29.40;99.90
12634;DHT22;6382;48.614;8.880;2023-08-20T11:12:44;29.50;99.90
12634;DHT22;6382;48.614;8.880;2023-08-20T11:15:12;29.60;99.90
12634;DHT22;6382;48.614;8.880;2023-08-20T11:17:42;29.70;99.90
12634;DHT22;6382;48.614;8.880;2023-08-20T11:20:09;30.80;99.90
12634;DHT22;6382;48.614;8.880;2023-08-20T11:22:38;29.70;99.90
12634;DHT22;6382;48.614;8.880;2023-08-20T11:25:05;29.80;99.90
12634;DHT22;6382;48.614;8.880;2023-08-20T11:27:33;29.80;99.90
12634;DHT22;6382;48.614;8.880;2023-08-20T11:30:00;29.90;99.90
12634;DHT22;6382;48.614;8.880;2023-08-20T11:32:27;30.00;99.90
12634;DHT22;6382;48.614;8.880;2023-08-20T11:34:53;30.00;99.90
12634;DHT22;6382;48.614;8.880;2023-08-20T11:37:20;30.20;99.90
12634;DHT22;6382;48.614;8.880;2023-08-20T11:39:48;30.20;99.90
12634;DHT22;6382;48.614;8.880;2023-08-20T11:42:15;30.20;99.90
12634;DHT22;6382;48.614;8.880;2023-08-20T11:44:42;30.30;99.90
12634;DHT22;6382;48.614;8.880;2023-08-20T11:47:16;30.30;99.90
12634;DHT22;6382;48.614;8.880;2023-08-20T11:49:44;30.20;99.90
12634;DHT22;6382;48.614;8.880;2023-08-20T11:52:11;30.20;99.90
12634;DHT22;6382;48.614;8.880;2023-08-20T11:54:39;30.20;99.90
12634;DHT22;6382;48.614;8.880;2023-08-20T11:57:08;30.30;99.90
12634;DHT22;6382;48.614;8.880;2023-08-20T11:59:35;30.30;99.90
12634;DHT22;6382;48.614;8.880;2023-08-20T12:02:02;30.20;99.90
12634;DHT22;6382;48.614;8.880;2023-08-20T12:04:31;30.10;99.90
12634;DHT22;6382;48.614;8.880;2023-08-20T12:09:32;29.80;99.90
12634;DHT22;6382;48.614;8.880;2023-08-20T12:11:59;29.70;99.90
12634;DHT22;6382;48.614;8.880;2023-08-20T12:14:26;29.60;99.90
12634;DHT22;6382;48.614;8.880;2023-08-20T12:16:54;29.80;99.90
12634;DHT22;6382;48.614;8.880;2023-08-20T12:19:21;30.00;99.90
12634;DHT22;6382;48.614;8.880;2023-08-20T12:21:48;30.20;99.90
12634;DHT22;6382;48.614;8.880;2023-08-20T12:24:15;30.30;99.90
12634;DHT22;6382;48.614;8.880;2023-08-20T12:26:42;30.40;99.90
12634;DHT22;6382;48.614;8.880;2023-08-20T12:29:09;30.40;99.90
12634;DHT22;6382;48.614;8.880;2023-08-20T12:31:36;30.50;99.90
12634;DHT22;6382;48.614;8.880;2023-08-20T12:34:03;30.50;99.90
12634;DHT22;6382;48.614;8.880;2023-08-20T12:36:30;30.50;99.90
12634;DHT22;6382;48.614;8.880;2023-08-20T12:39:00;30.60;99.90
12634;DHT22;6382;48.614;8.880;2023-08-20T12:41:27;30.70;99.90
12634;DHT22;6382;48.614;8.880;2023-08-20T12:43:54;30.80;99.90
12634;DHT22;6382;48.614;8.880;2023-08-20T12:46:21;30.70;99.90
12634;DHT22;6382;48.614;8.880;2023-08-20T12:48:48;30.80;99.90
12634;DHT22;6382;48.614;8.880;2023-08-20T12:51:16;30.80;99.90
12634;DHT22;6382;48.614;8.880;2023-08-20T12:53:43;30.70;99.90
12634;DHT22;6382;48.614;8.880;2023-08-20T12:56:10;30.80;99.90
12634;DHT22;6382;48.614;8.880;2023-08-20T12:58:38;30.80;99.90
12634;DHT22;6382;48.614;8.880;2023-08-20T13:01:06;30.80;99.90
12634;DHT22;6382;48.614;8.880;2023-08-20T13:03:33;30.70;99.90
12634;DHT22;6382;48.614;8.880;2023-08-20T13:06:00;30.70;99.90
12634;DHT22;6382;48.614;8.880;2023-08-20T13:08:27;30.60;99.90
12634;DHT22;6382;48.614;8.880;2023-08-20T13:10:55;30.80;99.90
12634;DHT22;6382;48.614;8.880;2023-08-20T13:13:22;30.90;99.90
12634;DHT22;6382;48.614;8.880;2023-08-20T13:15:52;30.90;99.90
12634;DHT22;6382;48.614;8.880;2023-08-20T13:18:20;30.90;99.90
12634;DHT22;6382;48.614;8.880;2023-08-20T13:20:52;31.00;99.90
12634;DHT22;6382;48.614;8.880;2023-08-20T13:23:19;30.80;99.90
12634;DHT22;6382;48.614;8.880;2023-08-20T13:25:45;30.90;99.90
12634;DHT22;6382;48.614;8.880;2023-08-20T13:28:12;30.80;99.90
12634;DHT22;6382;48.614;8.880;2023-08-20T13:30:39;30.80;99.90
12634;DHT22;6382;48.614;8.880;2023-08-20T13:33:06;30.90;99.90
12634;DHT22;6382;48.614;8.880;2023-08-20T13:35:34;30.90;99.90
12634;DHT22;6382;48.614;8.880;2023-08-20T13:38:01;31.00;99.90
12634;DHT22;6382;48.614;8.880;2023-08-20T13:40:28;31.00;99.90
12634;DHT22;6382;48.614;8.880;2023-08-20T13:42:55;30.90;99.90
12634;DHT22;6382;48.614;8.880;2023-08-20T13:45:22;30.90;99.90
12634;DHT22;6382;48.614;8.880;2023-08-20T13:47:49;30.80;99.90
12634;DHT22;6382;48.614;8.880;2023-08-20T13:50:15;31.00;99.90
12634;DHT22;6382;48.614;8.880;2023-08-20T13:52:42;31.10;99.90
12634;DHT22;6382;48.614;8.880;2023-08-20T13:55:09;31.20;99.90
12634;DHT22;6382;48.614;8.880;2023-08-20T13:57:36;31.30;99.90
12634;DHT22;6382;48.614;8.880;2023-08-20T14:00:04;31.20;99.90
12634;DHT22;6382;48.614;8.880;2023-08-20T14:02:35;31.30;99.90
12634;DHT22;6382;48.614;8.880;2023-08-20T14:05:03;31.40;99.90
12634;DHT22;6382;48.614;8.880;2023-08-20T14:07:33;31.50;99.90
12634;DHT22;6382;48.614;8.880;2023-08-20T14:10:04;31.60;99.90
12634;DHT22;6382;48.614;8.880;2023-08-20T14:12:31;31.50;99.90
12634;DHT22;6382;48.614;8.880;2023-08-20T14:14:58;31.60;99.90
12634;DHT22;6382;48.614;8.880;2023-08-20T14:17:25;31.70;99.90
12634;DHT22;6382;48.614;8.880;2023-08-20T14:19:52;31.60;99.90
12634;DHT22;6382;48.614;8.880;2023-08-20T14:22:18;31.70;99.90
12634;DHT22;6382;48.614;8.880;2023-08-20T14:24:45;31.50;99.90
12634;DHT22;6382;48.614;8.880;2023-08-20T14:27:12;31.40;99.90
12634;DHT22;6382;48.614;8.880;2023-08-20T14:29:40;31.10;99.90
12634;DHT22;6382;48.614;8.880;2023-08-20T14:32:07;30.70;99.90
12634;DHT22;6382;48.614;8.880;2023-08-20T14:34:33;30.50;99.90
12634;DHT22;6382;48.614;8.880;2023-08-20T14:37:00;30.70;99.90
12634;DHT22;6382;48.614;8.880;2023-08-20T14:39:27;30.80;99.90
12634;DHT22;6382;48.614;8.880;2023-08-20T14:41:54;30.90;99.90
12634;DHT22;6382;48.614;8.880;2023-08-20T14:44:21;31.00;99.90
12634;DHT22;6382;48.614;8.880;2023-08-20T14:46:48;31.10;99.90
12634;DHT22;6382;48.614;8.880;2023-08-20T14:49:15;31.20;99.90
12634;DHT22;6382;48.614;8.880;2023-08-20T14:51:42;31.40;99.90
12634;DHT22;6382;48.614;8.880;2023-08-20T14:54:09;31.30;99.90
12634;DHT22;6382;48.614;8.880;2023-08-20T14:56:36;31.20;99.90
12634;DHT22;6382;48.614;8.880;2023-08-20T14:59:03;31.20;99.90
12634;DHT22;6382;48.614;8.880;2023-08-20T15:01:30;31.20;99.90
12634;DHT22;6382;48.614;8.880;2023-08-20T15:03:57;31.20;99.90
12634;DHT22;6382;48.614;8.880;2023-08-20T15:06:24;31.30;99.90
12634;DHT22;6382;48.614;8.880;2023-08-20T15:08:53;31.30;99.90
12634;DHT22;6382;48.614;8.880;2023-08-20T15:11:19;31.30;99.90
12634;DHT22;6382;48.614;8.880;2023-08-20T15:13:46;31.20;99.90
12634;DHT22;6382;48.614;8.880;2023-08-20T15:16:13;30.80;99.90
12634;DHT22;6382;48.614;8.880;2023-08-20T15:18:40;30.50;99.90
12634;DHT22;6382;48.614;8.880;2023-08-20T15:21:07;30.30;99.90
12634;DHT22;6382;48.614;8.880;2023-08-20T15:23:37;30.30;99.90
12634;DHT22;6382;48.614;8.880;2023-08-20T15:26:04;30.30;99.90
12634;DHT22;6382;48.614;8.880;2023-08-20T15:28:31;30.10;99.90
12634;DHT22;6382;48.614;8.880;2023-08-20T15:30:58;30.20;99.90
12634;DHT22;6382;48.614;8.880;2023-08-20T15:33:25;30.30;99.90
12634;DHT22;6382;48.614;8.880;2023-08-20T15:35:52;30.50;99.90
12634;DHT22;6382;48.614;8.880;2023-08-20T15:38:19;30.60;99.90
12634;DHT22;6382;48.614;8.880;2023-08-20T15:40:48;30.70;99.90
12634;DHT22;6382;48.614;8.880;2023-08-20T15:43:14;30.70;99.90
12634;DHT22;6382;48.614;8.880;2023-08-20T15:45:41;30.70;99.90
12634;DHT22;6382;48.614;8.880;2023-08-20T15:48:08;30.70;99.90
12634;DHT22;6382;48.614;8.880;2023-08-20T15:50:37;30.70;99.90
12634;DHT22;6382;48.614;8.880;2023-08-20T15:53:03;30.70;99.90
12634;DHT22;6382;48.614;8.880;2023-08-20T15:55:30;30.70;99.90
12634;DHT22;6382;48.614;8.880;2023-08-20T15:57:57;30.70;99.90
12634;DHT22;6382;48.614;8.880;2023-08-20T16:00:24;30.60;99.90